Time;durP1;ratioP1;P1;durP2;ratioP2;P2;SDS_P1;SDS_P2;PMS_P1;PMS_P2;Temp;Humidity;BMP_temperature;BMP_pressure;BME280_temperature;BME280_humidity;BME280_pressure;Samples;Min_cycle;Max_cycle;Signal;HPM_P1;HPM_P2
2024/02/04 00:01:10;;;;;;;0.00;0.00;;;;;;;10.73;100.00;101548.66;6303493;22;20086;-81
2024/02/04 00:03:41;;;;;;;0.00;0.00;;;;;;;10.67;100.00;101529.63;6312974;22;19999;-82
2024/02/04 00:06:07;;;;;;;0.00;0.00;;;;;;;10.67;100.00;101524.16;6310297;22;20487;-81
2024/02/04 00:08:32;;;;;;;0.00;0.00;;;;;;;10.70;100.00;101519.03;6314949;22;20003;-81
2024/02/04 00:10:58;;;;;;;0.00;0.00;;;;;;;10.97;100.00;101563.13;6311773;22;20422;-80
2024/02/04 00:13:23;;;;;;;0.00;0.00;;;;;;;10.98;100.00;101564.81;6318544;22;19999;-80
2024/02/04 00:15:48;;;;;;;0.00;0.00;;;;;;;10.93;100.00;101551.00;6293996;22;20013;-80
2024/02/04 00:18:23;;;;;;;0.00;0.00;;;;;;;10.92;100.00;101549.34;6265582;22;20031;-79
2024/02/04 00:20:56;;;;;;;0.00;0.00;;;;;;;10.93;100.00;101556.47;6293005;22;20014;-79
2024/02/04 00:23:22;;;;;;;0.00;0.00;;;;;;;10.89;100.00;101544.34;6318490;22;20014;-80
2024/02/04 00:25:47;;;;;;;0.00;0.00;;;;;;;10.97;100.00;101563.13;6315337;22;20031;-81
2024/02/04 00:28:20;;;;;;;0.00;0.00;;;;;;;10.98;100.00;101564.81;6259257;22;20452;-81
2024/02/04 00:30:45;;;;;;;0.00;0.00;;;;;;;10.96;100.00;101552.44;6311807;22;20011;-80
2024/02/04 00:33:11;;;;;;;0.00;0.00;;;;;;;10.94;100.00;101549.94;6310605;22;19992;-80
2024/02/04 00:35:36;;;;;;;0.00;0.00;;;;;;;10.86;100.00;101546.72;6309400;22;20007;-80
2024/02/04 00:38:03;;;;;;;0.00;0.00;;;;;;;11.06;100.00;101560.03;6286576;22;20303;-81
2024/02/04 00:40:28;;;;;;;0.00;0.00;;;;;;;11.06;100.00;101560.03;6283082;22;20381;-80
2024/02/04 00:42:54;;;;;;;0.00;0.00;;;;;;;10.92;100.00;101538.41;6314555;22;20007;-80
2024/02/04 00:45:24;;;;;;;0.00;0.00;;;;;;;10.94;100.00;101535.44;6312504;22;20031;-80
2024/02/04 00:47:52;;;;;;;0.00;0.00;;;;;;;11.12;100.00;101570.00;6310722;22;20385;-79
2024/02/04 00:50:18;;;;;;;0.00;0.00;;;;;;;11.10;100.00;101566.69;6262666;22;20009;-80
2024/02/04 00:52:44;;;;;;;0.00;0.00;;;;;;;10.98;100.00;101542.91;6307788;22;20437;-80
2024/02/04 00:55:09;;;;;;;0.00;0.00;;;;;;;10.99;100.00;101544.56;6311267;22;20014;-80
2024/02/04 00:57:35;;;;;;;0.00;0.00;;;;;;;10.97;100.00;101530.28;6310679;22;20505;-80
2024/02/04 01:00:07;;;;;;;0.00;0.00;;;;;;;10.92;100.00;101527.47;6284807;22;20015;-79
2024/02/04 01:02:36;;;;;;;0.00;0.00;;;;;;;11.05;100.00;101541.94;6310450;22;20307;-81
2024/02/04 01:05:14;;;;;;;;;;;;;;;;;;;;;
2024/02/04 01:07:40;;;;;;;0.00;0.00;;;;;;;10.85;100.00;101521.28;6309301;22;20030;-79
2024/02/04 01:10:06;;;;;;;0.00;0.00;;;;;;;10.94;100.00;101536.25;6310611;22;20003;-78
2024/02/04 01:12:41;;;;;;;0.00;0.00;;;;;;;11.04;100.00;101551.22;6259235;22;20015;-79
2024/02/04 01:15:22;;;;;;;0.00;0.00;;;;;;;11.08;100.00;101558.72;6261752;22;20487;-80
2024/02/04 01:17:48;;;;;;;0.00;0.00;;;;;;;10.79;100.00;101505.81;6307694;22;20070;-80
2024/02/04 01:20:14;;;;;;;0.00;0.00;;;;;;;10.83;100.00;101517.94;6309607;22;20539;-79
2024/02/04 01:22:41;;;;;;;0.00;0.00;;;;;;;10.81;100.00;101506.41;6307224;22;20035;-80
2024/02/04 01:25:07;;;;;;;0.00;0.00;;;;;;;10.89;100.00;101522.44;6309304;22;20007;-81
2024/02/04 01:27:33;;;;;;;0.00;0.00;;;;;;;10.80;100.00;101512.94;6260218;22;20002;-81
2024/02/04 01:29:58;;;;;;;0.00;0.00;;;;;;;10.88;100.00;101526.28;6284338;22;20002;-81
2024/02/04 01:32:23;;;;;;;0.00;0.00;;;;;;;10.88;100.00;101519.94;6313419;22;19999;-81
2024/02/04 01:34:57;;;;;;;0.00;0.00;;;;;;;11.09;100.00;101543.94;6256635;22;20011;-80
2024/02/04 01:37:23;;;;;;;0.00;0.00;;;;;;;11.06;100.00;101529.91;6311513;22;19999;-82
2024/02/04 01:40:14;;;;;;;0.00;0.00;;;;;;;11.04;100.00;101518.38;6256462;22;19983;-81
2024/02/04 01:42:36;;;;;;;0.00;0.00;;;;;;;10.93;100.00;101504.47;6284157;22;20003;-82
2024/02/04 01:45:02;;;;;;;0.00;0.00;;;;;;;10.67;100.00;101453.03;6258368;22;20497;-79
2024/02/04 01:47:27;;;;;;;0.00;0.00;;;;;;;10.86;100.00;101495.56;6309653;22;20056;-79
2024/02/04 01:49:59;;;;;;;0.00;0.00;;;;;;;10.78;100.00;101491.31;6311860;22;20317;-74
2024/02/04 01:52:30;;;;;;;0.00;0.00;;;;;;;10.77;100.00;101475.13;6251598;22;20060;-74
2024/02/04 01:55:05;;;;;;;;;;;;;;;;;;;;;
2024/02/04 01:57:37;;;;;;;0.00;0.00;;;;;;;10.89;100.00;101502.47;6309599;22;20059;-75
2024/02/04 02:00:04;;;;;;;0.00;0.00;;;;;;;10.90;100.00;101504.97;6313198;22;19995;-70
2024/02/04 02:02:33;;;;;;;0.00;0.00;;;;;;;10.91;100.00;101512.09;6264143;22;20803;-72
2024/02/04 02:04:59;;;;;;;0.00;0.00;;;;;;;10.97;100.00;101519.34;6287069;22;20015;-76
2024/02/04 02:07:27;;;;;;;0.00;0.00;;;;;;;10.99;100.00;101528.16;6279557;22;20003;-72
2024/02/04 02:09:53;;;;;;;0.00;0.00;;;;;;;11.03;100.00;101522.19;6232172;22;20003;-72
2024/02/04 02:12:31;;;;;;;0.00;0.00;;;;;;;10.89;100.00;101495.06;6255414;22;20022;-73
2024/02/04 02:15:03;;;;;;;0.00;0.00;;;;;;;10.86;100.00;101487.34;6306689;22;20021;-71
2024/02/04 02:17:48;;;;;;;0.00;0.00;;;;;;;10.91;100.00;101492.13;6309883;22;20009;-73
2024/02/04 02:20:21;;;;;;;0.00;0.00;;;;;;;10.94;100.00;101489.72;6308602;22;20067;-74
2024/02/04 02:23:01;;;;;;;0.00;0.00;;;;;;;10.86;100.00;101492.81;6287524;22;20417;-74
2024/02/04 02:25:26;;;;;;;0.00;0.00;;;;;;;10.92;100.00;101491.88;6294511;22;20015;-73
2024/02/04 02:27:54;;;;;;;0.00;0.00;;;;;;;11.00;100.00;101513.38;6304247;22;20022;-74
2024/02/04 02:30:20;;;;;;;0.00;0.00;;;;;;;11.00;100.00;101502.44;6305843;22;20026;-73
2024/02/04 02:32:47;;;;;;;0.00;0.00;;;;;;;10.88;100.00;101487.97;6280583;22;20030;-73
2024/02/04 02:35:14;;;;;;;0.00;0.00;;;;;;;10.96;100.00;101500.44;6305842;22;20331;-73
2024/02/04 02:37:43;;;;;;;0.00;0.00;;;;;;;11.00;100.00;101502.44;6304745;22;20030;-74
2024/02/04 02:40:49;;;;;;;0.00;0.00;;;;;;;10.90;100.00;101491.28;6303699;22;19999;-73
2024/02/04 02:43:15;;;;;;;0.00;0.00;;;;;;;10.83;100.00;101480.47;6304757;22;20029;-74
2024/02/04 02:45:45;;;;;;;0.00;0.00;;;;;;;10.91;100.00;101482.00;6254853;22;20094;-72
2024/02/04 02:48:20;;;;;;;0.00;0.00;;;;;;;10.85;100.00;101482.13;6302558;22;20021;-73
2024/02/04 02:50:48;;;;;;;0.00;0.00;;;;;;;10.96;100.00;101495.78;6308160;22;20003;-73
2024/02/04 02:53:14;;;;;;;0.00;0.00;;;;;;;10.82;100.00;101475.25;6304146;22;19999;-73
2024/02/04 02:55:46;;;;;;;0.00;0.00;;;;;;;10.96;100.00;101500.44;6280240;22;20034;-72
2024/02/04 02:58:13;;;;;;;0.00;0.00;;;;;;;10.81;100.00;101476.31;6302942;22;20010;-75
2024/02/04 03:00:41;;;;;;;0.00;0.00;;;;;;;10.99;100.00;101487.09;6281975;22;20065;-72
2024/02/04 03:03:06;;;;;;;0.00;0.00;;;;;;;10.86;100.00;101470.94;6278061;22;20007;-74
2024/02/04 03:05:32;;;;;;;0.00;0.00;;;;;;;10.75;100.00;101449.94;6300797;22;20014;-73
2024/02/04 03:07:58;;;;;;;0.00;0.00;;;;;;;10.86;100.00;101465.47;6307052;22;20018;-73
2024/02/04 03:10:24;;;;;;;0.00;0.00;;;;;;;10.97;100.00;101486.50;6304719;22;20005;-73
2024/02/04 03:12:49;;;;;;;0.00;0.00;;;;;;;10.91;100.00;101481.19;6275686;22;20023;-73
2024/02/04 03:15:15;;;;;;;0.00;0.00;;;;;;;10.94;100.00;101481.50;6303335;22;20406;-71
2024/02/04 03:17:42;;;;;;;0.00;0.00;;;;;;;10.96;100.00;101479.34;6251450;22;20007;-72
2024/02/04 03:20:08;;;;;;;0.00;0.00;;;;;;;10.94;100.00;101481.50;6303153;22;20004;-75
2024/02/04 03:22:33;;;;;;;0.00;0.00;;;;;;;10.94;100.00;101483.44;6252944;22;20014;-76
2024/02/04 03:24:59;;;;;;;0.00;0.00;;;;;;;10.90;100.00;101484.97;6307447;22;20020;-76
2024/02/04 03:27:24;;;;;;;0.00;0.00;;;;;;;10.89;100.00;101486.03;6306338;22;20022;-72
2024/02/04 03:29:49;;;;;;;0.00;0.00;;;;;;;10.85;100.00;101468.44;6276457;22;20011;-71
2024/02/04 03:32:15;;;;;;;0.00;0.00;;;;;;;10.95;100.00;101482.34;6304980;22;20500;-72
2024/02/04 03:34:44;;;;;;;0.00;0.00;;;;;;;10.94;100.00;101486.97;6252916;22;20032;-72
2024/02/04 03:37:09;;;;;;;0.00;0.00;;;;;;;10.93;100.00;101479.84;6304598;22;20019;-72
2024/02/04 03:39:38;;;;;;;0.00;0.00;;;;;;;10.79;100.00;101451.94;6279416;22;20328;-73
2024/02/04 03:42:09;;;;;;;0.00;0.00;;;;;;;10.94;100.00;101484.25;6307366;22;20003;-73
2024/02/04 03:44:34;;;;;;;0.00;0.00;;;;;;;10.81;100.00;101466.19;6281098;22;20009;-74
2024/02/04 03:47:00;;;;;;;0.00;0.00;;;;;;;10.83;100.00;101463.22;6254774;22;20041;-74
2024/02/04 03:49:25;;;;;;;0.00;0.00;;;;;;;10.75;100.00;101452.66;6253396;22;20780;-74
2024/02/04 03:51:50;;;;;;;0.00;0.00;;;;;;;10.71;100.00;101454.22;6280784;22;20015;-73
2024/02/04 03:54:19;;;;;;;0.00;0.00;;;;;;;10.79;100.00;101481.19;6307340;22;20333;-74
2024/02/04 03:56:44;;;;;;;0.00;0.00;;;;;;;10.69;100.00;101464.56;6306477;22;20008;-74
2024/02/04 03:59:10;;;;;;;0.00;0.00;;;;;;;10.62;100.00;101451.84;6306383;22;20417;-73
2024/02/04 04:01:36;;;;;;;0.00;0.00;;;;;;;10.67;100.00;101455.78;6305177;22;20618;-73
2024/02/04 04:04:01;;;;;;;0.00;0.00;;;;;;;10.61;100.00;101450.19;6308054;22;20018;-74
2024/02/04 04:06:27;;;;;;;0.00;0.00;;;;;;;10.83;100.00;101479.63;6304482;22;20013;-74
2024/02/04 04:08:52;;;;;;;0.00;0.00;;;;;;;10.73;100.00;101452.91;6308543;22;20003;-74
2024/02/04 04:11:18;;;;;;;0.00;0.00;;;;;;;10.78;100.00;101460.38;6306748;22;20007;-74
2024/02/04 04:13:43;;;;;;;0.00;0.00;;;;;;;10.68;100.00;101449.25;6306095;22;20010;-74
2024/02/04 04:16:09;;;;;;;0.00;0.00;;;;;;;10.72;100.00;101453.13;6310116;22;20034;-73
2024/02/04 04:18:34;;;;;;;0.00;0.00;;;;;;;10.69;100.00;101440.78;6280204;22;20011;-74
2024/02/04 04:21:00;;;;;;;0.00;0.00;;;;;;;10.62;100.00;101429.16;6277433;22;20410;-73
2024/02/04 04:23:32;;;;;;;0.00;0.00;;;;;;;10.85;100.00;101463.81;6302521;22;20006;-72
2024/02/04 04:26:01;;;;;;;0.00;0.00;;;;;;;10.64;100.00;101422.38;6306836;22;20034;-73
2024/02/04 04:28:26;;;;;;;0.00;0.00;;;;;;;10.83;100.00;101435.84;6310727;22;20006;-74
2024/02/04 04:31:01;;;;;;;0.00;0.00;;;;;;;10.55;100.00;101396.44;6279487;22;20007;-74
2024/02/04 04:33:29;;;;;;;0.00;0.00;;;;;;;10.64;100.00;101416.03;6305941;22;20053;-74
2024/02/04 04:35:58;;;;;;;0.00;0.00;;;;;;;10.64;100.00;101419.63;6303742;22;20007;-74
2024/02/04 04:38:23;;;;;;;0.00;0.00;;;;;;;10.51;100.00;101402.66;6281850;22;20010;-74
2024/02/04 04:40:49;;;;;;;0.00;0.00;;;;;;;10.79;100.00;101438.25;6277519;22;20100;-73
2024/02/04 04:43:14;;;;;;;0.00;0.00;;;;;;;10.72;100.00;101423.03;6304783;22;20019;-73
2024/02/04 04:45:42;;;;;;;0.08;0.08;;;;;;;10.79;100.00;101437.41;6307987;22;20756;-73
2024/02/04 04:48:08;;;;;;;0.00;0.00;;;;;;;10.79;100.00;101430.06;6301939;22;20094;-74
2024/02/04 04:50:36;;;;;;;0.00;0.00;;;;;;;10.83;100.00;101438.59;6255746;22;20521;-74
2024/02/04 04:53:02;;;;;;;0.00;0.00;;;;;;;10.84;100.00;101437.53;6306106;22;20011;-76
2024/02/04 04:55:39;;;;;;;0.00;0.00;;;;;;;10.78;100.00;101427.56;6255802;22;20006;-78
2024/02/04 04:58:07;;;;;;;0.00;0.00;;;;;;;10.62;100.00;101402.63;6303629;22;20031;-77
2024/02/04 05:00:36;;;;;;;0.00;0.00;;;;;;;10.78;100.00;101428.38;6257069;22;20000;-76
2024/02/04 05:03:01;;;;;;;0.00;0.00;;;;;;;10.73;100.00;101420.09;6279941;22;20033;-75
2024/02/04 05:05:27;;;;;;;0.00;0.00;;;;;;;10.80;100.00;101425.41;6283728;22;20007;-75
2024/02/04 05:07:52;;;;;;;0.00;0.00;;;;;;;10.73;100.00;101413.75;6281531;22;20011;-76
2024/02/04 05:10:18;;;;;;;0.00;0.00;;;;;;;10.75;100.00;101422.56;6258644;22;20433;-76
2024/02/04 05:12:43;;;;;;;0.00;0.00;;;;;;;10.73;100.00;101419.22;6307949;22;20012;-75
2024/02/04 05:15:23;;;;;;;;;;;;;;;;;;;;;
2024/02/04 05:17:54;;;;;;;0.00;0.00;;;;;;;10.77;100.00;101420.41;6308313;22;20166;-73
2024/02/04 05:20:21;;;;;;;0.00;0.00;;;;;;;10.82;100.00;101418.63;6309919;22;20032;-76
2024/02/04 05:22:47;;;;;;;0.00;0.00;;;;;;;10.89;100.00;101423.09;6307102;22;20010;-75
2024/02/04 05:25:13;;;;;;;0.00;0.00;;;;;;;10.76;100.00;101408.66;6280613;22;20023;-77
2024/02/04 05:27:38;;;;;;;0.00;0.00;;;;;;;10.72;100.00;101392.94;6283290;22;20011;-77
2024/02/04 05:30:09;;;;;;;0.00;0.00;;;;;;;10.89;100.00;101426.66;6311838;22;20003;-79
2024/02/04 05:32:35;;;;;;;0.00;0.00;;;;;;;10.72;100.00;101401.16;6309786;22;20062;-76
2024/02/04 05:35:01;;;;;;;0.00;0.00;;;;;;;10.75;100.00;101401.50;6307738;22;20035;-75
2024/02/04 05:37:26;;;;;;;0.00;0.00;;;;;;;10.70;100.00;101386.91;6308078;22;20011;-76
2024/02/04 05:39:55;;;;;;;0.00;0.00;;;;;;;10.94;100.00;101415.84;6309670;22;20026;-76
2024/02/04 05:42:33;;;;;;;;;;;;;;;;;;;;;
2024/02/04 05:45:05;;;;;;;0.00;0.00;;;;;;;10.85;100.00;101394.56;6306881;22;20482;-76
2024/02/04 05:47:30;;;;;;;0.00;0.00;;;;;;;10.68;100.00;101378.13;6309786;22;20010;-75
2024/02/04 05:50:08;;;;;;;;;;;;;;;;;;;;;
2024/02/04 05:52:34;;;;;;;0.00;0.00;;;;;;;10.76;100.00;101386.75;6310938;22;20022;-76
2024/02/04 05:54:59;;;;;;;0.00;0.00;;;;;;;10.71;100.00;101369.41;6309194;22;20014;-77
2024/02/04 05:57:25;;;;;;;0.00;0.00;;;;;;;11.02;100.00;101411.03;6308218;22;20010;-77
2024/02/04 05:59:52;;;;;;;0.00;0.00;;;;;;;11.02;100.00;101411.03;6284844;22;20153;-77
2024/02/04 06:02:18;;;;;;;0.00;0.00;;;;;;;10.90;100.00;101387.28;6306641;22;19991;-77
2024/02/04 06:04:43;;;;;;;0.00;0.00;;;;;;;10.99;100.00;101385.84;6309056;22;20038;-76
2024/02/04 06:07:11;;;;;;;0.00;0.00;;;;;;;10.95;100.00;101389.28;6281088;22;20011;-75
2024/02/04 06:09:39;;;;;;;0.00;0.00;;;;;;;11.10;100.00;101407.91;6307187;22;20034;-75
2024/02/04 06:12:07;;;;;;;0.00;0.00;;;;;;;11.04;100.00;101389.72;6307428;22;20318;-74
2024/02/04 06:14:36;;;;;;;0.00;0.00;;;;;;;11.08;100.00;101396.38;6308241;22;20030;-77
2024/02/04 06:17:01;;;;;;;0.08;0.08;;;;;;;11.03;100.00;101397.09;6309988;22;20026;-77
2024/02/04 06:19:27;;;;;;;0.00;0.00;;;;;;;11.11;100.00;101393.13;6282081;22;20004;-77
2024/02/04 06:21:52;;;;;;;0.00;0.00;;;;;;;11.14;100.00;101392.66;6280808;22;20011;-76
2024/02/04 06:24:20;;;;;;;0.00;0.00;;;;;;;11.04;100.00;101381.50;6256196;22;20307;-77
2024/02/04 06:26:46;;;;;;;0.00;0.00;;;;;;;11.12;100.00;101392.88;6232846;22;20094;-78
2024/02/04 06:29:11;;;;;;;0.00;0.00;;;;;;;11.14;100.00;101388.03;6229507;22;20069;-76
2024/02/04 06:31:37;;;;;;;0.10;0.10;;;;;;;11.16;100.00;101395.97;6283597;22;20017;-75
2024/02/04 06:34:02;;;;;;;0.00;0.00;;;;;;;11.12;100.00;101389.34;6283047;22;20050;-78
2024/02/04 06:36:28;;;;;;;0.00;0.00;;;;;;;11.03;100.00;101371.66;6256990;22;20083;-76
2024/02/04 06:38:53;;;;;;;0.00;0.00;;;;;;;11.10;100.00;101386.03;6282374;22;20006;-76
2024/02/04 06:41:19;;;;;;;0.00;0.00;;;;;;;11.12;100.00;101392.06;6254136;22;20422;-76
2024/02/04 06:43:44;;;;;;;0.00;0.00;;;;;;;10.94;100.00;101361.09;6310983;22;20049;-74
2024/02/04 06:46:23;;;;;;;0.00;0.00;;;;;;;11.12;100.00;101389.34;6279630;22;20012;-76
2024/02/04 06:48:49;;;;;;;0.00;0.00;;;;;;;11.10;100.00;101377.81;6283120;22;20004;-76
2024/02/04 06:51:14;;;;;;;0.00;0.00;;;;;;;11.13;100.00;101386.34;6231316;22;20337;-75
2024/02/04 06:53:45;;;;;;;0.00;0.00;;;;;;;11.09;100.00;101390.66;6258498;22;20015;-76
2024/02/04 06:56:11;;;;;;;0.00;0.00;;;;;;;10.95;100.00;101373.72;6283827;22;20000;-76
2024/02/04 06:58:41;;;;;;;0.00;0.00;;;;;;;10.96;100.00;101369.88;6231937;22;20005;-76
2024/02/04 07:01:06;;;;;;;0.00;0.00;;;;;;;10.99;100.00;101379.50;6282709;22;20311;-76
2024/02/04 07:03:42;;;;;;;;;;;;;;;;;;;;;
2024/02/04 07:06:30;;;;;;;;;;;;;;;;;;;;;
2024/02/04 07:08:56;;;;;;;0.00;0.00;;;;;;;11.14;100.00;101400.84;6309708;22;20042;-77
2024/02/04 07:11:21;;;;;;;0.00;0.00;;;;;;;11.11;100.00;101390.41;6258615;22;20014;-75
2024/02/04 07:13:47;;;;;;;0.00;0.00;;;;;;;10.91;100.00;101347.91;6230957;22;20026;-76
2024/02/04 07:16:17;;;;;;;0.00;0.00;;;;;;;11.10;100.00;101375.06;6235756;22;20003;-81
2024/02/04 07:18:42;;;;;;;0.00;0.00;;;;;;;11.04;100.00;101376.03;6251105;22;20007;-81
2024/02/04 07:21:10;;;;;;;0.00;0.00;;;;;;;10.92;100.00;101356.94;6235082;22;20026;-81
2024/02/04 07:23:39;;;;;;;0.00;0.00;;;;;;;10.94;100.00;101363.00;6261498;22;20014;-81
2024/02/04 07:26:04;;;;;;;0.00;0.00;;;;;;;10.82;100.00;101358.41;6282268;22;20024;-82
2024/02/04 07:28:30;;;;;;;0.00;0.00;;;;;;;10.69;100.00;101334.09;6256974;22;20003;-82
2024/02/04 07:30:55;;;;;;;0.00;0.00;;;;;;;10.81;100.00;101361.41;6281814;22;19999;-81
2024/02/04 07:33:21;;;;;;;0.00;0.00;;;;;;;10.93;100.00;101380.50;6258794;22;19988;-81
2024/02/04 07:35:46;;;;;;;0.00;0.00;;;;;;;10.94;100.00;101363.84;6228507;22;20428;-78
2024/02/04 07:38:12;;;;;;;0.00;0.00;;;;;;;10.94;100.00;101382.16;6232011;22;19995;-83
2024/02/04 07:40:37;;;;;;;0.00;0.00;;;;;;;10.92;100.00;101374.22;6258559;22;20008;-82
2024/02/04 07:43:03;;;;;;;0.00;0.00;;;;;;;10.97;100.00;101362.53;6256752;22;20034;-83
2024/02/04 07:45:36;;;;;;;0.00;0.00;;;;;;;10.90;100.00;101359.09;6256411;22;20008;-76
2024/02/04 07:48:02;;;;;;;0.00;0.00;;;;;;;10.93;100.00;101362.16;6255461;22;19999;-77
2024/02/04 07:50:29;;;;;;;0.00;0.00;;;;;;;11.10;100.00;101380.56;6252140;22;20415;-78
2024/02/04 07:53:24;;;;;;;0.00;0.00;;;;;;;10.76;100.00;101326.56;6252063;22;20442;-78
2024/02/04 07:55:50;;;;;;;0.00;0.00;;;;;;;11.04;100.00;101363.19;6250694;22;20038;-77
2024/02/04 07:58:32;;;;;;;0.00;0.00;;;;;;;10.96;100.00;101338.97;6253456;22;20003;-77
2024/02/04 08:01:00;;;;;;;0.00;0.00;;;;;;;11.03;100.00;101349.75;6249466;22;20126;-79
2024/02/04 08:03:31;;;;;;;0.00;0.00;;;;;;;11.13;100.00;101374.56;6279990;22;20323;-78
2024/02/04 08:06:04;;;;;;;0.00;0.00;;;;;;;11.14;100.00;101398.13;6252394;22;20008;-77
2024/02/04 08:09:09;;;;;;;0.05;0.05;;;;;;;11.10;100.00;101397.78;6254535;22;20440;-82
2024/02/04 08:11:38;;;;;;;0.00;0.00;;;;;;;11.14;100.00;101395.38;6253636;22;20017;-79
2024/02/04 08:14:13;;;;;;;0.00;0.00;;;;;;;11.18;100.00;101400.13;6252895;22;20094;-78
2024/02/04 08:16:48;;;;;;;0.00;0.00;;;;;;;11.06;100.00;101385.66;6251343;22;20003;-78
2024/02/04 08:19:17;;;;;;;;;;;;;;;11.17;100.00;101405.88;6280513;22;20063;-80
2024/02/04 08:22:12;;;;;;;0.00;0.00;;;;;;;10.93;100.00;101386.78;6281009;22;19923;-79
2024/02/04 08:35:33;;;;;;;0.00;0.00;;;;;;;11.35;100.00;101413.84;6070425;23;20185;-79
2024/02/04 08:45:33;;;;;;;0.00;0.00;;;;;;;11.51;100.00;101401.25;5910523;24;20045;-79
2024/02/04 08:48:04;;;;;;;0.00;0.00;;;;;;;11.46;100.00;101389.38;5959219;24;20008;-79
2024/02/04 08:50:47;;;;;;;0.00;0.00;;;;;;;11.49;100.00;101388.88;5985528;23;20041;-78
2024/02/04 08:53:30;;;;;;;0.00;0.00;;;;;;;11.62;100.00;101394.03;6066320;23;20073;-79
2024/02/04 08:56:01;;;;;;;0.03;0.03;;;;;;;11.50;100.00;101374.91;6066402;23;20013;-79
2024/02/04 08:58:34;;;;;;;0.00;0.00;;;;;;;11.58;100.00;101370.09;6187313;22;20091;-79
2024/02/04 09:00:59;;;;;;;0.00;0.00;;;;;;;11.88;100.00;101419.09;6281118;22;20034;-77
2024/02/04 09:03:25;;;;;;;0.00;0.00;;;;;;;11.80;100.00;101392.94;6257706;22;20003;-78
2024/02/04 09:06:05;;;;;;;0.00;0.00;;;;;;;11.74;100.00;101401.31;6280707;22;20057;-77
2024/02/04 09:08:30;;;;;;;0.00;0.00;;;;;;;11.52;100.00;101404.78;6283277;22;20007;-78
2024/02/04 09:11:18;;;;;;;0.00;0.00;;;;;;;11.63;100.00;101434.03;6282715;22;19990;-75
2024/02/04 09:13:57;;;;;;;;;;;;;;;;;;;;;
2024/02/04 09:16:23;;;;;;;0.00;0.00;;;;;;;11.47;100.00;101432.13;6309747;22;20030;-78
2024/02/04 09:34:14;;;;;;;;;;;;;;;;;;;;;
2024/02/04 09:36:53;;;;;;;0.00;0.00;;;;;;;11.24;100.00;101420.19;6124046;23;20065;-78
2024/02/04 09:39:19;;;;;;;0.00;0.00;;;;;;;11.16;100.00;101417.88;6169277;23;20009;-79
2024/02/04 09:41:47;;;;;;;0.00;0.00;;;;;;;11.22;100.00;101414.16;6201110;23;20140;-78
2024/02/04 09:44:52;;;;;;;0.00;0.00;;;;;;;11.33;100.00;101418.75;6198234;23;20012;-78
2024/02/04 09:47:20;;;;;;;0.00;0.00;;;;;;;11.56;100.00;101444.31;6265999;22;20325;-78
2024/02/04 09:49:56;;;;;;;;;;;;;;;;;;;;;
2024/02/04 09:52:41;;;;;;;;;;;;;;;;;;;;;
2024/02/04 09:56:02;;;;;;;;;;;;;;;;;;;;;
2024/02/04 09:58:53;;;;;;;0.08;0.08;;;;;;;11.64;100.00;101443.91;6282365;22;20069;-77
2024/02/04 10:02:31;;;;;;;0.00;0.00;;;;;;;11.77;100.00;101439.19;6281913;22;20013;-75
2024/02/04 10:05:17;;;;;;;0.00;0.00;;;;;;;11.76;100.00;101437.53;6183989;23;20016;-73
2024/02/04 10:07:43;;;;;;;0.00;0.00;;;;;;;11.55;100.00;101398.00;6154763;23;20080;-74
2024/02/04 10:10:09;;;;;;;0.00;0.00;;;;;;;11.66;100.00;101417.09;6264356;22;20440;-77
2024/02/04 10:12:44;;;;;;;0.00;0.00;;;;;;;11.85;100.00;101438.78;6279248;22;20019;-77
2024/02/04 10:15:17;;;;;;;;;;;;;;;11.92;100.00;101455.88;6258163;22;20007;-74
2024/02/04 10:17:45;;;;;;;0.00;0.00;;;;;;;11.79;100.00;101429.63;6281520;22;20345;-74
2024/02/04 10:20:13;;;;;;;0.00;0.00;;;;;;;11.90;100.00;101441.59;6278641;22;20002;-74
2024/02/04 10:22:39;;;;;;;0.00;0.00;;;;;;;11.90;100.00;101455.31;6278564;22;20011;-74
2024/02/04 10:25:16;;;;;;;0.00;0.00;;;;;;;11.64;100.00;101413.78;6227959;22;20014;-76
2024/02/04 10:27:49;;;;;;;0.00;0.00;;;;;;;11.87;100.00;101444.81;6279713;22;20077;-74
2024/02/04 10:31:19;;;;;;;0.00;0.00;;;;;;;11.65;100.00;101412.72;6306012;22;20050;-74
2024/02/04 10:33:45;;;;;;;0.00;0.00;;;;;;;11.66;100.00;101425.31;6121643;23;20826;-74
2024/02/04 10:36:10;;;;;;;0.00;0.00;;;;;;;11.75;100.00;101441.34;6096085;23;20101;-75
2024/02/04 10:39:20;;;;;;;0.00;0.00;;;;;;;11.84;100.00;101457.13;6236065;22;20146;-75
2024/02/04 10:42:40;;;;;;;;;;;;;;;;;;;;;
2024/02/04 10:45:28;;;;;;;0.00;0.00;;;;;;;11.72;100.00;101420.75;6270483;22;20027;-74
2024/02/04 10:48:42;;;;;;;;;;;;;;;;;;;;;
2024/02/04 10:51:15;;;;;;;0.00;0.00;;;;;;;11.93;100.00;101405.50;6259069;22;20014;-74
2024/02/04 10:54:08;;;;;;;;;;;;;;;;;;;;;
2024/02/04 11:00:08;;;;;;;0.00;0.00;;;;;;;12.77;100.00;101419.22;6269998;22;19996;-74
2024/02/04 11:02:45;;;;;;;;;;;;;;;;;;;;;
2024/02/04 11:05:37;;;;;;;0.00;0.00;;;;;;;13.18;97.56;101458.94;6251185;22;20059;-74
2024/02/04 11:14:21;;;;;;;0.00;0.00;;;;;;;12.70;97.89;101419.41;6237554;22;20058;-72
2024/02/04 11:17:26;;;;;;;0.00;0.00;;;;;;;12.84;98.95;101458.28;6249241;22;20427;-74
2024/02/04 11:20:27;;;;;;;0.00;0.00;;;;;;;12.65;99.09;101422.09;6273964;22;20034;-73
2024/02/04 11:23:14;;;;;;;0.00;0.00;;;;;;;12.75;99.29;101433.19;6248051;22;20035;-73
2024/02/04 11:26:17;;;;;;;0.00;0.00;;;;;;;12.89;98.30;101448.19;6245744;22;20004;-73
2024/02/04 11:28:48;;;;;;;0.00;0.00;;;;;;;12.68;97.89;101427.91;6246920;22;20008;-74
2024/02/04 11:31:17;;;;;;;0.00;0.00;;;;;;;12.75;98.25;101445.00;6248081;22;20011;-75
2024/02/04 11:33:43;;;;;;;0.00;0.00;;;;;;;12.57;98.10;101415.13;6305080;22;20007;-73
2024/02/04 11:36:35;;;;;;;0.00;0.00;;;;;;;12.55;98.15;101412.63;6226808;22;20018;-75
2024/02/04 11:39:21;;;;;;;0.00;0.00;;;;;;;12.51;98.44;101411.50;6253451;22;20011;-74
2024/02/04 11:42:15;;;;;;;0.00;0.00;;;;;;;12.69;98.37;101424.06;6303606;22;20045;-74
2024/02/04 11:47:51;;;;;;;0.00;0.00;;;;;;;12.85;96.85;101418.75;6266308;22;20090;-74
2024/02/04 11:50:28;;;;;;;0.00;0.00;;;;;;;13.02;96.81;101411.25;6277061;22;20018;-75
2024/02/04 11:53:31;;;;;;;;;;;;;;;;;;;;;
2024/02/04 11:56:34;;;;;;;;;;;;;;;;;;;;;
2024/02/04 11:59:17;;;;;;;;;;;;;;;;;;;;;
2024/02/04 12:02:11;;;;;;;0.00;0.00;;;;;;;13.00;94.46;101401.63;6258756;22;20047;-74
2024/02/04 12:04:43;;;;;;;0.00;0.00;;;;;;;13.02;95.15;101389.28;6281086;22;20043;-74
2024/02/04 12:07:13;;;;;;;0.00;0.00;;;;;;;12.91;93.48;101362.84;6256266;22;20014;-74
2024/02/04 12:09:38;;;;;;;0.00;0.00;;;;;;;13.12;93.46;101374.03;6277698;22;20012;-73
2024/02/04 12:12:05;;;;;;;0.00;0.00;;;;;;;13.29;91.97;101404.94;6279764;22;20010;-74
2024/02/04 12:14:31;;;;;;;0.00;0.00;;;;;;;13.26;91.79;101400.78;6278124;22;20003;-73
2024/02/04 12:17:03;;;;;;;0.00;0.00;;;;;;;13.22;92.04;101368.63;6277825;22;20010;-73
2024/02/04 12:19:54;;;;;;;;;;;;;;;;;;;;;
2024/02/04 12:22:49;;;;;;;0.00;0.00;;;;;;;13.17;90.97;101374.06;6304271;22;20082;-73
2024/02/04 12:25:14;;;;;;;0.00;0.00;;;;;;;13.07;91.72;101339.09;6276010;22;20120;-74
2024/02/04 12:27:48;;;;;;;0.00;0.00;;;;;;;13.47;90.91;101383.72;6274442;22;20394;-73
2024/02/04 12:30:15;;;;;;;0.00;0.00;;;;;;;13.39;89.73;101365.75;6250760;22;20647;-74
2024/02/04 12:32:43;;;;;;;0.00;0.00;;;;;;;13.50;89.35;101369.44;6277410;22;20066;-74
2024/02/04 12:35:36;;;;;;;0.00;0.00;;;;;;;13.64;89.15;101378.91;6278162;22;20605;-73
2024/02/04 12:38:13;;;;;;;0.00;0.00;;;;;;;13.41;89.42;101352.59;6275565;22;20093;-73
2024/02/04 12:40:39;;;;;;;0.00;0.00;;;;;;;13.36;89.13;101355.31;6274014;22;20110;-74
2024/02/04 12:43:04;;;;;;;0.00;0.00;;;;;;;13.18;90.29;101360.06;6249874;22;20457;-74
2024/02/04 12:45:33;;;;;;;0.00;0.00;;;;;;;13.31;90.82;101353.31;6304567;22;20380;-73
2024/02/04 12:48:01;;;;;;;0.00;0.00;;;;;;;13.23;89.87;101351.06;6278138;22;20015;-73
2024/02/04 12:50:29;;;;;;;0.00;0.00;;;;;;;13.26;91.01;101339.56;6254984;22;20037;-73
2024/02/04 12:53:44;;;;;;;0.00;0.00;;;;;;;13.24;90.18;101339.81;6251862;22;20011;-74